Time;durP1;ratioP1;P1;durP2;ratioP2;P2;SDS_P1;SDS_P2;PMS_P1;PMS_P2;Temp;Humidity;BMP_temperature;BMP_pressure;BME280_temperature;BME280_humidity;BME280_pressure;Samples;Min_cycle;Max_cycle;Signal;HPM_P1;HPM_P2
2022/03/13 00:01:33;;;;;;;0.20;0.20;;;;;;;;;;5085981;28;20467;-73
2022/03/13 00:04:00;;;;;;;0.20;0.20;;;;;;;;;;5089977;28;20500;-74
2022/03/13 00:06:31;;;;;;;0.20;0.20;;;;;;;;;;5085051;28;20271;-74
2022/03/13 00:08:58;;;;;;;0.20;0.20;;;;;;;;;;5089646;28;20201;-73
2022/03/13 00:11:27;;;;;;;0.20;0.20;;;;;;;;;;5084948;28;20341;-74
2022/03/13 00:13:54;;;;;;;1.20;1.20;;;;;;;;;;5089799;28;20302;-76
2022/03/13 00:16:21;;;;;;;0.50;0.50;;;;;;;;;;5084275;28;20243;-73
2022/03/13 00:18:49;;;;;;;0.10;0.10;;;;;;;;;;5090465;28;20231;-73
2022/03/13 00:21:16;;;;;;;0.20;0.20;;;;;;;;;;5083673;28;20284;-73
2022/03/13 00:23:43;;;;;;;0.20;0.20;;;;;;;;;;5090954;28;20436;-76
2022/03/13 00:26:10;;;;;;;1.70;1.70;;;;;;;;;;5082412;28;20238;-74
2022/03/13 00:28:39;;;;;;;0.20;0.20;;;;;;;;;;5090919;28;20203;-75
2022/03/13 00:31:05;;;;;;;0.20;0.20;;;;;;;;;;5081883;28;20261;-73
2022/03/13 00:33:31;;;;;;;0.20;0.20;;;;;;;;;;5092352;28;20227;-73
2022/03/13 00:35:59;;;;;;;0.20;0.20;;;;;;;;;;5081293;28;20238;-75
2022/03/13 00:38:26;;;;;;;0.20;0.20;;;;;;;;;;5092930;28;20272;-72
2022/03/13 00:40:53;;;;;;;0.20;0.20;;;;;;;;;;5080317;28;20243;-73
2022/03/13 00:43:20;;;;;;;0.20;0.20;;;;;;;;;;5093679;28;20257;-72
2022/03/13 00:45:46;;;;;;;5.40;3.90;;;;;;;;;;5079406;28;20361;-71
2022/03/13 00:48:13;;;;;;;0.20;0.20;;;;;;;;;;5094671;28;20413;-73
2022/03/13 00:50:40;;;;;;;0.20;0.20;;;;;;;;;;5078589;28;20445;-74
2022/03/13 00:53:07;;;;;;;0.20;0.20;;;;;;;;;;5095588;28;20210;-74
2022/03/13 00:55:33;;;;;;;0.20;0.20;;;;;;;;;;5076385;28;20238;-75
2022/03/13 00:58:00;;;;;;;0.20;0.20;;;;;;;;;;5096466;28;20215;-74
2022/03/13 01:00:26;;;;;;;0.97;0.97;;;;;;;;;;5077016;28;20255;-74
2022/03/13 01:02:53;;;;;;;0.33;0.33;;;;;;;;;;5097180;28;20208;-75
2022/03/13 01:05:21;;;;;;;0.30;0.30;;;;;;;;;;5075744;28;20432;-73
2022/03/13 01:07:47;;;;;;;3.83;3.70;;;;;;;;;;5097851;28;20276;-75
2022/03/13 01:10:15;;;;;;;0.40;0.40;;;;;;;;;;5075075;28;20230;-75
2022/03/13 01:12:41;;;;;;;3.37;1.90;;;;;;;;;;5098655;28;20215;-74
2022/03/13 01:15:08;;;;;;;0.60;0.60;;;;;;;;;;5073926;28;20209;-73
2022/03/13 01:17:35;;;;;;;1.30;1.30;;;;;;;;;;5099246;28;20243;-74
2022/03/13 01:20:02;;;;;;;0.20;0.20;;;;;;;;;;5083734;28;20208;-75
2022/03/13 01:22:28;;;;;;;0.20;0.20;;;;;;;;;;5089247;28;20275;-75
2022/03/13 01:24:55;;;;;;;0.20;0.20;;;;;;;;;;5083747;28;20260;-74
2022/03/13 01:27:23;;;;;;;0.43;0.43;;;;;;;;;;5089122;28;20487;-74
2022/03/13 01:29:49;;;;;;;0.20;0.20;;;;;;;;;;5084047;28;20208;-74
2022/03/13 01:32:16;;;;;;;0.20;0.20;;;;;;;;;;5088864;28;20260;-74
2022/03/13 01:34:46;;;;;;;0.20;0.20;;;;;;;;;;5083314;28;20234;-74
2022/03/13 01:37:20;;;;;;;0.50;0.50;;;;;;;;;;5088928;28;20305;-73
2022/03/13 01:39:48;;;;;;;0.20;0.20;;;;;;;;;;5083787;28;20203;-75
2022/03/13 01:42:14;;;;;;;0.97;0.97;;;;;;;;;;5088676;28;20230;-73
2022/03/13 01:44:42;;;;;;;0.20;0.20;;;;;;;;;;5083715;28;20207;-74
2022/03/13 01:47:09;;;;;;;0.30;0.30;;;;;;;;;;5088817;28;20238;-75
2022/03/13 01:49:35;;;;;;;0.97;0.97;;;;;;;;;;5083589;28;20244;-74
2022/03/13 01:52:02;;;;;;;0.20;0.20;;;;;;;;;;5087960;28;20272;-74
2022/03/13 01:54:30;;;;;;;0.63;0.63;;;;;;;;;;5083749;28;20279;-75
2022/03/13 01:56:56;;;;;;;0.20;0.20;;;;;;;;;;5087506;28;20261;-73
2022/03/13 01:59:22;;;;;;;0.37;0.37;;;;;;;;;;5084592;28;20374;-74
2022/03/13 02:01:50;;;;;;;0.30;0.30;;;;;;;;;;5086238;28;20242;-72
2022/03/13 02:04:23;;;;;;;0.20;0.20;;;;;;;;;;5085435;28;20279;-73
2022/03/13 02:06:50;;;;;;;2.77;2.67;;;;;;;;;;5086007;28;20296;-74
2022/03/13 02:09:17;;;;;;;6.20;5.87;;;;;;;;;;5084650;28;20195;-74
2022/03/13 02:11:43;;;;;;;0.20;0.20;;;;;;;;;;5085486;28;20283;-74
2022/03/13 02:14:11;;;;;;;0.40;0.40;;;;;;;;;;5085876;28;20465;-74
2022/03/13 02:16:37;;;;;;;0.20;0.20;;;;;;;;;;5084553;28;20304;-73
2022/03/13 02:19:06;;;;;;;0.20;0.20;;;;;;;;;;5086409;28;20249;-75
2022/03/13 02:21:37;;;;;;;0.20;0.20;;;;;;;;;;5083986;28;20299;-74
2022/03/13 02:24:08;;;;;;;1.70;1.70;;;;;;;;;;5086587;28;20302;-73
2022/03/13 02:26:34;;;;;;;1.80;1.80;;;;;;;;;;5084232;28;20502;-74
2022/03/13 02:29:00;;;;;;;0.30;0.30;;;;;;;;;;5086678;28;20207;-74
2022/03/13 02:31:28;;;;;;;0.20;0.20;;;;;;;;;;5082881;28;20312;-74
2022/03/13 02:33:54;;;;;;;0.20;0.20;;;;;;;;;;5087872;28;20412;-75
2022/03/13 02:36:29;;;;;;;4.50;4.13;;;;;;;;;;5082102;28;20246;-74
2022/03/13 02:38:56;;;;;;;0.30;0.30;;;;;;;;;;5087427;28;20269;-74
2022/03/13 02:41:26;;;;;;;0.80;0.80;;;;;;;;;;5082469;28;20238;-74
2022/03/13 02:43:52;;;;;;;0.20;0.20;;;;;;;;;;5087454;28;20207;-73
2022/03/13 02:46:20;;;;;;;0.20;0.20;;;;;;;;;;5081884;28;20238;-74
2022/03/13 02:48:46;;;;;;;0.20;0.20;;;;;;;;;;5088468;28;20275;-75
2022/03/13 02:51:12;;;;;;;0.20;0.20;;;;;;;;;;5080513;28;20238;-73
2022/03/13 02:53:39;;;;;;;5.20;4.90;;;;;;;;;;5089601;28;20225;-74
2022/03/13 02:56:06;;;;;;;1.17;1.17;;;;;;;;;;5080081;28;20287;-74
2022/03/13 02:58:33;;;;;;;0.87;0.87;;;;;;;;;;5089841;28;20278;-74
2022/03/13 03:01:00;;;;;;;1.13;1.13;;;;;;;;;;5079106;28;20243;-75
2022/03/13 03:03:26;;;;;;;0.87;0.87;;;;;;;;;;5090899;28;20275;-73
2022/03/13 03:05:53;;;;;;;0.40;0.40;;;;;;;;;;5078144;28;20245;-73
2022/03/13 03:08:19;;;;;;;0.20;0.20;;;;;;;;;;5091547;28;20199;-75
2022/03/13 03:10:46;;;;;;;3.43;3.20;;;;;;;;;;5077324;28;20297;-73
2022/03/13 03:13:13;;;;;;;0.30;0.30;;;;;;;;;;5092570;28;20227;-74
2022/03/13 03:15:40;;;;;;;0.73;0.73;;;;;;;;;;5076572;28;20238;-74
2022/03/13 03:18:09;;;;;;;0.30;0.30;;;;;;;;;;5093248;28;20208;-73
2022/03/13 03:20:35;;;;;;;0.20;0.20;;;;;;;;;;5079011;28;20288;-74
2022/03/13 03:23:02;;;;;;;0.23;0.23;;;;;;;;;;5097630;28;20225;-74
2022/03/13 03:25:28;;;;;;;0.20;0.20;;;;;;;;;;5078592;28;20300;-75
2022/03/13 03:27:56;;;;;;;9.97;9.20;;;;;;;;;;5098593;28;20241;-73
2022/03/13 03:30:24;;;;;;;1.57;1.57;;;;;;;;;;5077687;28;20229;-73
2022/03/13 03:32:52;;;;;;;0.20;0.20;;;;;;;;;;5099077;28;20215;-74
2022/03/13 03:35:19;;;;;;;0.20;0.20;;;;;;;;;;5077169;28;20265;-73
2022/03/13 03:37:45;;;;;;;0.30;0.30;;;;;;;;;;5099705;28;20191;-74
2022/03/13 03:40:12;;;;;;;1.20;1.20;;;;;;;;;;5076438;28;20249;-73
2022/03/13 03:42:38;;;;;;;0.40;0.40;;;;;;;;;;5100534;28;20229;-73
2022/03/13 03:45:05;;;;;;;0.93;0.93;;;;;;;;;;5084819;28;20244;-72
2022/03/13 03:47:31;;;;;;;0.40;0.40;;;;;;;;;;5100682;28;20230;-73
2022/03/13 03:49:59;;;;;;;0.20;0.20;;;;;;;;;;5085748;28;20280;-75
2022/03/13 03:52:26;;;;;;;0.30;0.30;;;;;;;;;;5090664;28;20239;-74
2022/03/13 03:54:52;;;;;;;0.20;0.20;;;;;;;;;;5085559;28;20521;-73
2022/03/13 03:57:19;;;;;;;0.20;0.20;;;;;;;;;;5090631;28;20254;-74
2022/03/13 03:59:45;;;;;;;0.63;0.63;;;;;;;;;;5085486;28;20207;-73
2022/03/13 04:02:11;;;;;;;0.20;0.20;;;;;;;;;;5090536;28;20258;-73
2022/03/13 04:04:39;;;;;;;0.30;0.30;;;;;;;;;;5085178;28;20211;-74
2022/03/13 04:07:06;;;;;;;1.80;1.80;;;;;;;;;;5090539;28;20248;-74
2022/03/13 04:09:32;;;;;;;0.30;0.30;;;;;;;;;;5085321;28;20253;-74
2022/03/13 04:11:59;;;;;;;2.03;2.00;;;;;;;;;;5089345;28;20229;-74
2022/03/13 04:14:25;;;;;;;0.33;0.33;;;;;;;;;;5085643;28;20203;-74
2022/03/13 04:16:53;;;;;;;4.80;1.63;;;;;;;;;;5088719;28;20320;-73
2022/03/13 04:19:19;;;;;;;0.23;0.23;;;;;;;;;;5086735;28;20294;-74
2022/03/13 04:21:46;;;;;;;0.20;0.20;;;;;;;;;;5087547;28;20262;-74
2022/03/13 04:24:13;;;;;;;0.37;0.37;;;;;;;;;;5087837;28;20215;-72
2022/03/13 04:26:40;;;;;;;0.20;0.20;;;;;;;;;;5086955;28;20271;-73
2022/03/13 04:29:07;;;;;;;0.30;0.30;;;;;;;;;;5087702;28;20217;-73
2022/03/13 04:31:35;;;;;;;0.27;0.27;;;;;;;;;;5085525;28;20607;-74
2022/03/13 04:34:02;;;;;;;0.20;0.20;;;;;;;;;;5088284;28;20223;-73
2022/03/13 04:36:32;;;;;;;0.30;0.30;;;;;;;;;;5085384;28;20246;-74
2022/03/13 04:38:58;;;;;;;0.30;0.30;;;;;;;;;;5088972;28;20387;-73
2022/03/13 04:41:26;;;;;;;0.20;0.20;;;;;;;;;;5084753;28;20238;-73
2022/03/13 04:43:53;;;;;;;0.23;0.23;;;;;;;;;;5089696;28;20203;-73
2022/03/13 04:46:19;;;;;;;1.70;1.70;;;;;;;;;;5084006;28;20248;-72
2022/03/13 04:48:45;;;;;;;0.30;0.30;;;;;;;;;;5090367;28;20215;-73
2022/03/13 04:51:11;;;;;;;0.20;0.20;;;;;;;;;;5082484;28;20301;-73
2022/03/13 04:53:38;;;;;;;0.23;0.23;;;;;;;;;;5091253;28;20234;-72
2022/03/13 04:56:05;;;;;;;0.20;0.20;;;;;;;;;;5081837;28;20260;-73
2022/03/13 04:58:33;;;;;;;0.30;0.30;;;;;;;;;;5092092;28;20235;-74
2022/03/13 05:00:59;;;;;;;0.20;0.20;;;;;;;;;;5081026;28;20495;-74
2022/03/13 05:03:26;;;;;;;0.20;0.20;;;;;;;;;;5092648;28;20253;-74
2022/03/13 05:05:53;;;;;;;1.27;1.23;;;;;;;;;;5078566;28;20238;-74
2022/03/13 05:08:19;;;;;;;0.20;0.20;;;;;;;;;;5094442;28;20274;-74
2022/03/13 05:10:47;;;;;;;0.20;0.20;;;;;;;;;;5079201;28;20238;-73
2022/03/13 05:13:14;;;;;;;0.20;0.20;;;;;;;;;;5093976;28;20211;-74
2022/03/13 05:15:42;;;;;;;0.20;0.20;;;;;;;;;;5078423;28;20245;-74
2022/03/13 05:18:09;;;;;;;0.53;0.53;;;;;;;;;;5094559;28;20498;-74
2022/03/13 05:20:35;;;;;;;0.23;0.23;;;;;;;;;;5077569;28;20246;-73
2022/03/13 05:23:02;;;;;;;0.30;0.30;;;;;;;;;;5095645;28;20414;-73
2022/03/13 05:25:30;;;;;;;0.20;0.20;;;;;;;;;;5076486;28;20242;-73
2022/03/13 05:27:57;;;;;;;0.23;0.23;;;;;;;;;;5096139;28;20415;-72
2022/03/13 05:30:24;;;;;;;0.30;0.30;;;;;;;;;;5075764;28;20211;-75
2022/03/13 05:32:52;;;;;;;0.33;0.33;;;;;;;;;;5096852;28;20215;-73
2022/03/13 05:35:18;;;;;;;0.53;0.53;;;;;;;;;;5074915;28;20452;-73
2022/03/13 05:37:45;;;;;;;0.20;0.20;;;;;;;;;;5097451;28;20211;-71
2022/03/13 05:40:13;;;;;;;0.37;0.37;;;;;;;;;;5073648;28;20203;-73
2022/03/13 05:42:39;;;;;;;0.20;0.20;;;;;;;;;;5097644;28;20211;-74
2022/03/13 05:45:06;;;;;;;0.20;0.20;;;;;;;;;;5074375;28;20249;-73
2022/03/13 05:47:32;;;;;;;0.20;0.20;;;;;;;;;;5098631;28;20242;-72
2022/03/13 05:50:00;;;;;;;0.20;0.20;;;;;;;;;;5083291;28;20261;-73
2022/03/13 05:52:26;;;;;;;0.20;0.20;;;;;;;;;;5088519;28;20610;-72
2022/03/13 05:54:53;;;;;;;0.20;0.20;;;;;;;;;;5083557;28;20203;-73
2022/03/13 05:57:19;;;;;;;0.20;0.20;;;;;;;;;;5088288;28;20508;-74
2022/03/13 05:59:45;;;;;;;0.20;0.20;;;;;;;;;;5083278;28;20450;-72
2022/03/13 06:02:12;;;;;;;0.20;0.20;;;;;;;;;;5088658;28;20234;-73
2022/03/13 06:04:39;;;;;;;0.30;0.30;;;;;;;;;;5083281;28;20210;-73
2022/03/13 06:07:08;;;;;;;0.20;0.20;;;;;;;;;;5088251;28;20242;-74
2022/03/13 06:09:34;;;;;;;0.20;0.20;;;;;;;;;;5082949;28;20202;-72
2022/03/13 06:12:00;;;;;;;0.20;0.20;;;;;;;;;;5087578;28;20288;-73
2022/03/13 06:14:27;;;;;;;0.20;0.20;;;;;;;;;;5083738;28;20203;-74
2022/03/13 06:16:54;;;;;;;0.20;0.20;;;;;;;;;;5086741;28;20257;-73
2022/03/13 06:19:20;;;;;;;0.20;0.20;;;;;;;;;;5084504;28;20274;-73
2022/03/13 06:21:47;;;;;;;0.20;0.20;;;;;;;;;;5085608;28;20237;-74
2022/03/13 06:24:16;;;;;;;0.20;0.20;;;;;;;;;;5085198;28;20426;-73
2022/03/13 06:26:44;;;;;;;0.50;0.50;;;;;;;;;;5085179;28;20238;-73
2022/03/13 06:29:14;;;;;;;0.20;0.20;;;;;;;;;;5085225;28;20274;-72
2022/03/13 06:31:40;;;;;;;0.20;0.20;;;;;;;;;;5085136;28;20302;-73
2022/03/13 06:34:08;;;;;;;3.70;3.60;;;;;;;;;;5085653;28;20231;-73
2022/03/13 06:36:37;;;;;;;0.23;0.23;;;;;;;;;;5083882;28;20302;-74
2022/03/13 06:39:04;;;;;;;0.20;0.20;;;;;;;;;;5086076;28;20211;-74
2022/03/13 06:41:32;;;;;;;1.13;1.13;;;;;;;;;;5083569;28;20238;-74
2022/03/13 06:43:58;;;;;;;0.20;0.20;;;;;;;;;;5087233;28;20199;-74
2022/03/13 06:46:24;;;;;;;3.53;3.43;;;;;;;;;;5082765;28;20308;-73
2022/03/13 06:48:50;;;;;;;0.20;0.20;;;;;;;;;;5087965;28;20223;-72
2022/03/13 06:51:17;;;;;;;0.20;0.20;;;;;;;;;;5081806;28;20249;-74
2022/03/13 06:53:43;;;;;;;10.47;9.83;;;;;;;;;;5090901;28;20419;-74
2022/03/13 06:56:12;;;;;;;1.07;1.07;;;;;;;;;;5084570;28;20618;-73
2022/03/13 06:58:41;;;;;;;0.20;0.20;;;;;;;;;;5093633;28;20331;-73
2022/03/13 07:01:07;;;;;;;0.20;0.20;;;;;;;;;;5084287;28;20246;-74
2022/03/13 07:03:34;;;;;;;0.20;0.20;;;;;;;;;;5093825;28;20199;-74
2022/03/13 07:06:02;;;;;;;0.20;0.20;;;;;;;;;;5083474;28;20485;-74
2022/03/13 07:08:28;;;;;;;0.20;0.20;;;;;;;;;;5094645;28;20274;-73
2022/03/13 07:10:55;;;;;;;0.77;0.77;;;;;;;;;;5082496;28;20442;-74
2022/03/13 07:13:22;;;;;;;0.67;0.67;;;;;;;;;;5095539;28;20403;-74
2022/03/13 07:15:51;;;;;;;0.20;0.20;;;;;;;;;;5081531;28;20614;-72
2022/03/13 07:18:17;;;;;;;0.37;0.37;;;;;;;;;;5095954;28;20295;-72
2022/03/13 07:20:43;;;;;;;2.93;2.83;;;;;;;;;;5080655;28;20307;-72
2022/03/13 07:23:10;;;;;;;1.23;1.23;;;;;;;;;;5096280;28;20249;-74
2022/03/13 07:25:36;;;;;;;0.30;0.30;;;;;;;;;;5079603;28;20242;-73
2022/03/13 07:28:02;;;;;;;0.20;0.20;;;;;;;;;;5097738;28;20192;-74
2022/03/13 07:30:34;;;;;;;0.20;0.20;;;;;;;;;;5078544;28;20481;-74
2022/03/13 07:33:02;;;;;;;0.20;0.20;;;;;;;;;;5097740;28;20519;-74
2022/03/13 07:35:28;;;;;;;0.20;0.20;;;;;;;;;;5078463;28;20243;-75
2022/03/13 07:37:54;;;;;;;0.20;0.20;;;;;;;;;;5098243;28;20263;-73
2022/03/13 07:40:23;;;;;;;0.33;0.33;;;;;;;;;;5077283;28;20203;-74
2022/03/13 07:42:49;;;;;;;0.20;0.20;;;;;;;;;;5099664;28;20513;-73
2022/03/13 07:45:15;;;;;;;0.10;0.10;;;;;;;;;;5076745;28;20421;-73
2022/03/13 07:47:43;;;;;;;0.10;0.10;;;;;;;;;;5100023;28;20191;-74
2022/03/13 07:50:11;;;;;;;0.20;0.20;;;;;;;;;;5075478;28;20209;-73
2022/03/13 07:52:37;;;;;;;0.30;0.30;;;;;;;;;;5100495;28;20545;-74
2022/03/13 07:55:04;;;;;;;0.10;0.10;;;;;;;;;;5085348;28;20235;-75
2022/03/13 07:57:33;;;;;;;0.10;0.10;;;;;;;;;;5073893;28;20209;-74
2022/03/13 08:00:00;;;;;;;0.60;0.60;;;;;;;;;;5085317;28;20268;-74
2022/03/13 08:02:26;;;;;;;0.10;0.10;;;;;;;;;;5090733;28;20551;-73
2022/03/13 08:04:52;;;;;;;0.20;0.20;;;;;;;;;;5084715;28;20360;-74
2022/03/13 08:07:20;;;;;;;0.10;0.10;;;;;;;;;;5090430;28;20294;-74
2022/03/13 08:09:46;;;;;;;0.10;0.10;;;;;;;;;;5085016;28;20248;-73
2022/03/13 08:12:12;;;;;;;0.10;0.10;;;;;;;;;;5090648;28;20248;-74
2022/03/13 08:14:38;;;;;;;0.10;0.10;;;;;;;;;;5085064;28;20232;-73
2022/03/13 08:17:05;;;;;;;0.60;0.60;;;;;;;;;;5090391;27;20245;-73
2022/03/13 08:19:31;;;;;;;0.10;0.10;;;;;;;;;;5085269;28;20203;-74
2022/03/13 08:21:57;;;;;;;1.20;1.10;;;;;;;;;;5089430;28;20587;-76
2022/03/13 08:24:25;;;;;;;2.53;2.43;;;;;;;;;;5086022;28;20253;-74
2022/03/13 08:26:52;;;;;;;0.20;0.20;;;;;;;;;;5088567;28;20242;-73
2022/03/13 08:29:18;;;;;;;3.13;2.93;;;;;;;;;;5086711;28;20206;-72
2022/03/13 08:31:44;;;;;;;0.67;0.67;;;;;;;;;;5087401;28;20241;-71
2022/03/13 08:34:11;;;;;;;0.20;0.20;;;;;;;;;;5087220;28;20457;-73
2022/03/13 08:36:37;;;;;;;0.00;0.00;;;;;;;;;;5086358;28;20610;-74
2022/03/13 08:39:04;;;;;;;1.13;0.63;;;;;;;;;;5088514;28;20293;-73
2022/03/13 08:41:31;;;;;;;0.10;0.10;;;;;;;;;;5085322;28;20246;-73
2022/03/13 08:43:58;;;;;;;0.30;0.30;;;;;;;;;;5089112;28;20548;-74
2022/03/13 08:46:24;;;;;;;0.20;0.20;;;;;;;;;;5084748;28;20304;-73
2022/03/13 08:48:50;;;;;;;0.05;0.05;;;;;;;;;;5089860;28;20248;-73
2022/03/13 08:51:18;;;;;;;0.52;0.52;;;;;;;;;;5083641;28;20238;-73
2022/03/13 08:53:45;;;;;;;0.60;0.50;;;;;;;;;;5090046;28;20225;-72
2022/03/13 08:56:13;;;;;;;0.47;0.47;;;;;;;;;;5082801;28;20486;-73
2022/03/13 08:58:43;;;;;;;0.03;0.03;;;;;;;;;;5091207;28;20205;-73
2022/03/13 09:01:09;;;;;;;0.20;0.20;;;;;;;;;;5082459;28;20494;-73
2022/03/13 09:03:36;;;;;;;0.00;0.00;;;;;;;;;;5091516;28;20256;-72
2022/03/13 09:06:02;;;;;;;0.00;0.00;;;;;;;;;;5081690;28;20257;-73
2022/03/13 09:08:28;;;;;;;1.08;1.08;;;;;;;;;;5092109;28;20267;-73
2022/03/13 09:10:55;;;;;;;1.10;1.10;;;;;;;;;;5079698;28;20301;-73
2022/03/13 09:13:21;;;;;;;0.52;0.45;;;;;;;;;;5093394;28;20224;-73
2022/03/13 09:15:48;;;;;;;0.20;0.20;;;;;;;;;;5079054;28;20294;-72
2022/03/13 09:18:15;;;;;;;0.20;0.20;;;;;;;;;;5093190;28;20207;-72
2022/03/13 09:20:41;;;;;;;0.00;0.00;;;;;;;;;;5078462;28;20441;-74
2022/03/13 09:23:08;;;;;;;1.48;1.20;;;;;;;;;;5094819;28;20254;-74
2022/03/13 09:25:34;;;;;;;1.35;0.85;;;;;;;;;;5077216;28;20296;-74
2022/03/13 09:28:00;;;;;;;1.02;0.70;;;;;;;;;;5095815;28;20260;-73
2022/03/13 09:30:27;;;;;;;1.23;1.15;;;;;;;;;;5076521;28;20240;-74
2022/03/13 09:32:54;;;;;;;0.00;0.00;;;;;;;;;;5096732;28;20399;-72
2022/03/13 09:35:20;;;;;;;0.25;0.25;;;;;;;;;;5075524;28;20229;-74
2022/03/13 09:37:47;;;;;;;0.10;0.10;;;;;;;;;;5097075;28;20210;-73
2022/03/13 09:40:14;;;;;;;0.10;0.10;;;;;;;;;;5074587;28;20210;-73
2022/03/13 09:42:41;;;;;;;0.00;0.00;;;;;;;;;;5097870;28;20275;-72
2022/03/13 09:45:07;;;;;;;0.00;0.00;;;;;;;;;;5073769;28;20205;-73
2022/03/13 09:47:34;;;;;;;6.75;1.30;;;;;;;;;;5098553;28;20245;-73
2022/03/13 09:50:02;;;;;;;0.10;0.10;;;;;;;;;;5083513;28;20214;-73
2022/03/13 09:52:28;;;;;;;0.98;0.98;;;;;;;;;;5088918;28;20239;-73
2022/03/13 09:54:54;;;;;;;0.00;0.00;;;;;;;;;;5083464;28;20291;-73
2022/03/13 09:57:20;;;;;;;0.30;0.30;;;;;;;;;;5088755;28;20241;-74
2022/03/13 09:59:47;;;;;;;0.05;0.05;;;;;;;;;;5083413;28;20267;-75
2022/03/13 10:02:14;;;;;;;0.73;0.43;;;;;;;;;;5088637;28;20242;-73
2022/03/13 10:04:40;;;;;;;0.20;0.20;;;;;;;;;;5083323;28;20199;-73
2022/03/13 10:07:09;;;;;;;0.15;0.15;;;;;;;;;;5088663;28;20246;-73
2022/03/13 10:09:36;;;;;;;0.65;0.65;;;;;;;;;;5083374;28;20210;-74
2022/03/13 10:12:04;;;;;;;0.30;0.30;;;;;;;;;;5088168;28;20238;-76
2022/03/13 10:14:30;;;;;;;0.00;0.00;;;;;;;;;;5083361;28;20420;-74
2022/03/13 10:17:10;;;;;;;5.10;4.57;;;;;;;;;;5087506;28;20261;-74
2022/03/13 10:19:37;;;;;;;0.00;0.00;;;;;;;;;;5083728;28;20226;-75
2022/03/13 10:22:18;;;;;;;0.00;0.00;;;;;;;;;;5088211;28;20288;-73
2022/03/13 10:24:46;;;;;;;2.92;2.78;;;;;;;;;;5082877;28;20207;-74
2022/03/13 10:27:13;;;;;;;0.55;0.55;;;;;;;;;;5088514;28;20238;-75
2022/03/13 10:29:40;;;;;;;0.05;0.05;;;;;;;;;;5082970;28;20428;-73
2022/03/13 10:32:06;;;;;;;0.10;0.10;;;;;;;;;;5088229;28;20239;-73
2022/03/13 10:34:33;;;;;;;0.00;0.00;;;;;;;;;;5082886;28;20238;-67
2022/03/13 10:37:01;;;;;;;0.32;0.32;;;;;;;;;;5087341;28;20238;-67
2022/03/13 10:39:27;;;;;;;0.00;0.00;;;;;;;;;;5083274;28;20261;-65
2022/03/13 10:42:03;;;;;;;2.10;2.00;;;;;;;;;;5086660;28;20238;-65
2022/03/13 10:44:31;;;;;;;0.00;0.00;;;;;;;;;;5083375;28;20191;-67
2022/03/13 10:46:57;;;;;;;0.40;0.40;;;;;;;;;;5086978;28;20285;-67
2022/03/13 10:49:40;;;;;;;0.10;0.10;;;;;;;;;;5083829;28;20206;-66
2022/03/13 10:52:25;;;;;;;0.15;0.15;;;;;;;;;;5088056;28;20274;-67
2022/03/13 10:54:52;;;;;;;0.00;0.00;;;;;;;;;;5082611;28;20229;-67
2022/03/13 10:57:20;;;;;;;0.00;0.00;;;;;;;;;;5088017;28;20242;-67
2022/03/13 10:59:46;;;;;;;0.00;0.00;;;;;;;;;;5082697;28;20278;-65
2022/03/13 11:02:14;;;;;;;0.93;0.22;;;;;;;;;;5087881;28;20249;-66
2022/03/13 11:04:48;;;;;;;0.00;0.00;;;;;;;;;;5082843;28;20210;-66
2022/03/13 11:07:14;;;;;;;0.00;0.00;;;;;;;;;;5087920;28;20249;-66
2022/03/13 11:09:40;;;;;;;0.45;0.08;;;;;;;;;;5082725;28;20207;-66
2022/03/13 11:12:09;;;;;;;0.30;0.30;;;;;;;;;;5088164;28;20245;-67
2022/03/13 11:14:37;;;;;;;0.10;0.10;;;;;;;;;;5082593;28;20585;-67
2022/03/13 11:17:03;;;;;;;0.00;0.00;;;;;;;;;;5087640;28;20410;-67
2022/03/13 11:19:29;;;;;;;0.10;0.10;;;;;;;;;;5082366;28;20215;-65
2022/03/13 11:21:56;;;;;;;1.17;0.20;;;;;;;;;;5086565;28;20295;-66
2022/03/13 11:24:23;;;;;;;0.10;0.10;;;;;;;;;;5083674;28;20218;-67
2022/03/13 11:26:50;;;;;;;0.73;0.73;;;;;;;;;;5085595;28;20292;-66
2022/03/13 11:29:36;;;;;;;0.65;0.65;;;;;;;;;;5084484;28;20206;-70
2022/03/13 11:32:24;;;;;;;0.22;0.22;;;;;;;;;;5087184;28;20244;-66
2022/03/13 11:35:14;;;;;;;11.20;4.53;;;;;;;;;;5081968;28;20546;-66
2022/03/13 11:37:40;;;;;;;0.08;0.08;;;;;;;;;;5082046;28;20308;-65
2022/03/13 11:40:08;;;;;;;0.45;0.45;;;;;;;;;;5073418;28;20206;-65
2022/03/13 11:42:44;;;;;;;0.00;0.00;;;;;;;;;;5100888;28;20260;-65
2022/03/13 11:45:30;;;;;;;0.15;0.15;;;;;;;;;;5076437;28;20342;-65
2022/03/13 11:47:57;;;;;;;0.00;0.00;;;;;;;;;;5098033;28;20514;-66
2022/03/13 11:50:45;;;;;;;0.00;0.00;;;;;;;;;;5078139;28;20357;-67
2022/03/13 11:53:15;;;;;;;0.00;0.00;;;;;;;;;;5096179;28;20561;-68
2022/03/13 11:55:56;;;;;;;0.00;0.00;;;;;;;;;;5080129;28;20246;-65
2022/03/13 11:58:39;;;;;;;0.00;0.00;;;;;;;;;;5094058;28;20241;-67
2022/03/13 12:01:08;;;;;;;0.00;0.00;;;;;;;;;;5082773;28;20245;-67
2022/03/13 12:03:36;;;;;;;0.43;0.43;;;;;;;;;;5093575;28;20240;-67
2022/03/13 12:06:03;;;;;;;0.00;0.00;;;;;;;;;;5082794;28;20238;-67
2022/03/13 12:08:44;;;;;;;0.00;0.00;;;;;;;;;;5093332;28;20211;-68
2022/03/13 12:11:26;;;;;;;0.10;0.10;;;;;;;;;;5083397;28;20581;-70
2022/03/13 12:13:52;;;;;;;0.03;0.03;;;;;;;;;;5089528;28;20209;-68
2022/03/13 12:16:20;;;;;;;1.17;1.02;;;;;;;;;;5084557;28;20250;-66
2022/03/13 12:18:57;;;;;;;0.00;0.00;;;;;;;;;;5091264;28;20203;-65
2022/03/13 12:21:23;;;;;;;0.00;0.00;;;;;;;;;;5085211;28;20238;-65
2022/03/13 12:23:49;;;;;;;0.00;0.00;;;;;;;;;;5090467;28;20208;-65
2022/03/13 12:26:16;;;;;;;0.47;0.47;;;;;;;;;;5084134;28;20242;-69
2022/03/13 12:28:42;;;;;;;0.00;0.00;;;;;;;;;;5091374;28;20210;-69
2022/03/13 12:31:09;;;;;;;0.03;0.03;;;;;;;;;;5083078;28;20238;-69
2022/03/13 12:33:36;;;;;;;0.10;0.10;;;;;;;;;;5091843;28;20235;-68
2022/03/13 12:36:04;;;;;;;0.40;0.40;;;;;;;;;;5082232;28;20311;-67
2022/03/13 12:38:34;;;;;;;0.00;0.00;;;;;;;;;;5092902;28;20266;-68
2022/03/13 12:41:02;;;;;;;0.00;0.00;;;;;;;;;;5081936;28;20239;-69
2022/03/13 12:43:43;;;;;;;0.00;0.00;;;;;;;;;;5093147;28;20203;-69
2022/03/13 12:46:10;;;;;;;2.33;2.22;;;;;;;;;;5082956;28;20269;-68
2022/03/13 12:48:38;;;;;;;0.00;0.00;;;;;;;;;;5092030;28;20203;-68
2022/03/13 12:51:07;;;;;;;0.00;0.00;;;;;;;;;;5082005;28;20288;-69
2022/03/13 12:53:34;;;;;;;0.00;0.00;;;;;;;;;;5092217;28;20207;-68
2022/03/13 12:56:01;;;;;;;0.00;0.00;;;;;;;;;;5081428;28;20584;-69
2022/03/13 12:58:41;;;;;;;0.10;0.10;;;;;;;;;;5092960;28;20255;-69
2022/03/13 13:01:17;;;;;;;0.10;0.10;;;;;;;;;;5082331;28;20298;-68
2022/03/13 13:03:49;;;;;;;0.10;0.10;;;;;;;;;;5090154;28;20269;-67
2022/03/13 13:06:28;;;;;;;0.00;0.00;;;;;;;;;;5083163;28;20467;-68
2022/03/13 13:08:55;;;;;;;0.00;0.00;;;;;;;;;;5089196;28;20215;-69
2022/03/13 13:11:28;;;;;;;0.08;0.08;;;;;;;;;;5083862;28;20239;-67
2022/03/13 13:13:57;;;;;;;0.00;0.00;;;;;;;;;;5088994;28;20509;-67
2022/03/13 13:16:23;;;;;;;0.10;0.10;;;;;;;;;;5084046;28;20263;-68
2022/03/13 13:18:50;;;;;;;1.67;1.65;;;;;;;;;;5089314;28;20213;-69
2022/03/13 13:21:16;;;;;;;0.10;0.10;;;;;;;;;;5083107;28;20519;-64
2022/03/13 13:23:44;;;;;;;0.00;0.00;;;;;;;;;;5090408;28;20211;-66
2022/03/13 13:26:10;;;;;;;0.10;0.10;;;;;;;;;;5081925;28;20246;-71
2022/03/13 13:28:36;;;;;;;0.00;0.00;;;;;;;;;;5091248;28;20238;-64
2022/03/13 13:31:02;;;;;;;0.10;0.10;;;;;;;;;;5080607;28;20559;-78
2022/03/13 13:33:31;;;;;;;0.20;0.20;;;;;;;;;;5092232;28;20451;-67
2022/03/13 13:36:00;;;;;;;0.20;0.20;;;;;;;;;;5080197;28;20490;-71
2022/03/13 13:38:28;;;;;;;0.52;0.52;;;;;;;;;;5092152;28;20553;-72
2022/03/13 13:41:01;;;;;;;0.47;0.47;;;;;;;;;;5079464;28;20249;-71
2022/03/13 13:43:28;;;;;;;0.45;0.45;;;;;;;;;;5092172;28;20264;-75
2022/03/13 13:46:02;;;;;;;0.10;0.10;;;;;;;;;;5078800;28;20448;-74
2022/03/13 13:48:29;;;;;;;0.20;0.20;;;;;;;;;;5091440;28;20508;-67
2022/03/13 13:51:14;;;;;;;0.10;0.10;;;;;;;;;;5079656;28;20248;-68
2022/03/13 13:53:48;;;;;;;3.78;3.50;;;;;;;;;;5090138;28;20374;-66
2022/03/13 13:56:16;;;;;;;0.10;0.10;;;;;;;;;;5081681;28;20535;-68
2022/03/13 13:58:42;;;;;;;0.10;0.10;;;;;;;;;;5089583;28;20205;-69
2022/03/13 14:01:25;;;;;;;0.40;0.40;;;;;;;;;;5081115;28;20485;-71
2022/03/13 14:03:52;;;;;;;0.10;0.10;;;;;;;;;;5088096;28;20200;-70
2022/03/13 14:06:19;;;;;;;0.63;0.57;;;;;;;;;;5082433;28;20571;-68
2022/03/13 14:08:47;;;;;;;3.73;0.20;;;;;;;;;;5089100;28;20245;-67
2022/03/13 14:11:13;;;;;;;0.10;0.10;;;;;;;;;;5081572;28;20294;-69
2022/03/13 14:13:41;;;;;;;0.97;0.97;;;;;;;;;;5089785;28;20271;-69
2022/03/13 14:16:07;;;;;;;0.20;0.20;;;;;;;;;;5080699;28;20511;-75
2022/03/13 14:18:33;;;;;;;0.10;0.10;;;;;;;;;;5090334;28;20209;-69
2022/03/13 14:21:02;;;;;;;0.10;0.10;;;;;;;;;;5080124;28;20441;-68
2022/03/13 14:23:28;;;;;;;0.70;0.70;;;;;;;;;;5091210;28;20428;-68
2022/03/13 14:25:54;;;;;;;0.20;0.20;;;;;;;;;;5078993;28;20254;-68
2022/03/13 14:28:23;;;;;;;4.53;4.33;;;;;;;;;;5091608;28;20203;-67
2022/03/13 14:30:51;;;;;;;0.10;0.10;;;;;;;;;;5078338;28;20238;-66
2022/03/13 14:33:17;;;;;;;0.63;0.63;;;;;;;;;;5092106;28;20223;-67
2022/03/13 14:35:44;;;;;;;0.10;0.10;;;;;;;;;;5077034;28;20432;-68
2022/03/13 14:38:10;;;;;;;0.10;0.10;;;;;;;;;;5093318;28;20388;-69
2022/03/13 14:40:36;;;;;;;0.00;0.00;;;;;;;;;;5076359;28;20305;-65
2022/03/13 14:43:02;;;;;;;0.10;0.10;;;;;;;;;;5094203;28;20208;-67
2022/03/13 14:45:29;;;;;;;0.10;0.10;;;;;;;;;;5075844;28;20239;-65
2022/03/13 14:47:56;;;;;;;0.60;0.60;;;;;;;;;;5095241;28;20213;-65